sensor_id;sensor_type;location;lat;lon;timestamp;pressure;altitude;pressure_sealevel;temperature;humidity
9784;BME280;4931;44.874;-1.092;2022-09-03T00:02:14;101041.25;;;19.61;100.00
9784;BME280;4931;44.874;-1.092;2022-09-03T00:07:05;101039.50;;;19.48;100.00
9784;BME280;4931;44.874;-1.092;2022-09-03T00:12:00;101041.03;;;19.36;100.00
9784;BME280;4931;44.874;-1.092;2022-09-03T00:16:49;101051.03;;;19.29;100.00
9784;BME280;4931;44.874;-1.092;2022-09-03T00:21:40;101039.75;;;19.25;100.00
9784;BME280;4931;44.874;-1.092;2022-09-03T00:26:32;101035.03;;;19.17;100.00
9784;BME280;4931;44.874;-1.092;2022-09-03T00:31:24;101036.34;;;19.11;100.00
9784;BME280;4931;44.874;-1.092;2022-09-03T00:36:15;101027.53;;;19.08;100.00
9784;BME280;4931;44.874;-1.092;2022-09-03T00:41:07;101034.59;;;18.97;100.00
9784;BME280;4931;44.874;-1.092;2022-09-03T00:46:04;101038.69;;;18.65;100.00
9784;BME280;4931;44.874;-1.092;2022-09-03T00:51:04;101032.66;;;18.19;100.00
9784;BME280;4931;44.874;-1.092;2022-09-03T00:55:59;101028.25;;;18.35;100.00
9784;BME280;4931;44.874;-1.092;2022-09-03T01:00:46;101032.97;;;18.44;100.00
9784;BME280;4931;44.874;-1.092;2022-09-03T01:05:47;101025.63;;;18.39;100.00
9784;BME280;4931;44.874;-1.092;2022-09-03T01:10:53;101025.78;;;18.25;100.00
9784;BME280;4931;44.874;-1.092;2022-09-03T01:15:44;101027.63;;;17.81;100.00
9784;BME280;4931;44.874;-1.092;2022-09-03T01:20:47;101032.44;;;17.98;100.00
9784;BME280;4931;44.874;-1.092;2022-09-03T01:25:48;101025.44;;;18.00;100.00
9784;BME280;4931;44.874;-1.092;2022-09-03T01:30:41;101032.63;;;18.01;100.00
9784;BME280;4931;44.874;-1.092;2022-09-03T01:35:35;101038.22;;;18.19;100.00
9784;BME280;4931;44.874;-1.092;2022-09-03T01:40:26;101032.66;;;18.19;100.00
9784;BME280;4931;44.874;-1.092;2022-09-03T01:45:33;101039.19;;;18.32;100.00
9784;BME280;4931;44.874;-1.092;2022-09-03T01:50:41;101020.25;;;18.42;100.00
9784;BME280;4931;44.874;-1.092;2022-09-03T01:55:31;101030.34;;;18.38;100.00
9784;BME280;4931;44.874;-1.092;2022-09-03T02:00:18;101024.81;;;18.38;100.00
9784;BME280;4931;44.874;-1.092;2022-09-03T02:05:07;101033.47;;;18.19;100.00
9784;BME280;4931;44.874;-1.092;2022-09-03T02:09:55;101032.97;;;18.08;100.00
9784;BME280;4931;44.874;-1.092;2022-09-03T02:14:41;101034.44;;;18.06;100.00
9784;BME280;4931;44.874;-1.092;2022-09-03T02:19:27;101040.00;;;18.23;100.00
9784;BME280;4931;44.874;-1.092;2022-09-03T02:24:15;101029.69;;;18.24;100.00
9784;BME280;4931;44.874;-1.092;2022-09-03T02:29:04;101027.59;;;18.30;100.00
9784;BME280;4931;44.874;-1.092;2022-09-03T02:33:50;101034.28;;;18.29;100.00
9784;BME280;4931;44.874;-1.092;2022-09-03T02:38:35;101042.63;;;18.29;100.00
9784;BME280;4931;44.874;-1.092;2022-09-03T02:43:25;101037.25;;;18.32;100.00
9784;BME280;4931;44.874;-1.092;2022-09-03T02:48:16;101032.31;;;18.29;100.00
9784;BME280;4931;44.874;-1.092;2022-09-03T02:53:03;101032.56;;;17.84;100.00
9784;BME280;4931;44.874;-1.092;2022-09-03T02:57:48;101034.88;;;17.41;100.00
9784;BME280;4931;44.874;-1.092;2022-09-03T03:02:33;101037.28;;;17.74;100.00
9784;BME280;4931;44.874;-1.092;2022-09-03T03:07:21;101041.19;;;17.73;100.00
9784;BME280;4931;44.874;-1.092;2022-09-03T03:12:07;101034.72;;;17.47;100.00
9784;BME280;4931;44.874;-1.092;2022-09-03T03:16:53;101031.72;;;17.34;100.00
9784;BME280;4931;44.874;-1.092;2022-09-03T03:21:38;101032.09;;;17.41;100.00
9784;BME280;4931;44.874;-1.092;2022-09-03T03:26:26;101035.88;;;17.46;100.00
9784;BME280;4931;44.874;-1.092;2022-09-03T03:31:13;101032.94;;;17.51;100.00
9784;BME280;4931;44.874;-1.092;2022-09-03T03:36:03;101037.28;;;17.34;100.00
9784;BME280;4931;44.874;-1.092;2022-09-03T03:40:48;101033.63;;;17.25;100.00
9784;BME280;4931;44.874;-1.092;2022-09-03T03:45:36;101031.00;;;17.20;100.00
9784;BME280;4931;44.874;-1.092;2022-09-03T03:50:21;101045.09;;;17.32;100.00
9784;BME280;4931;44.874;-1.092;2022-09-03T03:55:07;101037.53;;;17.24;100.00
9784;BME280;4931;44.874;-1.092;2022-09-03T03:59:56;101026.72;;;17.14;100.00
9784;BME280;4931;44.874;-1.092;2022-09-03T04:04:44;101034.28;;;17.22;100.00
9784;BME280;4931;44.874;-1.092;2022-09-03T04:09:29;101031.28;;;17.09;100.00
9784;BME280;4931;44.874;-1.092;2022-09-03T04:14:15;101030.41;;;17.00;100.00
9784;BME280;4931;44.874;-1.092;2022-09-03T04:19:01;101021.78;;;17.02;100.00
9784;BME280;4931;44.874;-1.092;2022-09-03T04:23:50;101032.81;;;16.93;100.00
9784;BME280;4931;44.874;-1.092;2022-09-03T04:28:36;101031.19;;;16.92;100.00
9784;BME280;4931;44.874;-1.092;2022-09-03T04:33:24;101024.75;;;16.60;100.00
9784;BME280;4931;44.874;-1.092;2022-09-03T04:38:09;101026.81;;;16.77;100.00
9784;BME280;4931;44.874;-1.092;2022-09-03T04:42:59;101030.91;;;16.80;100.00
9784;BME280;4931;44.874;-1.092;2022-09-03T04:47:44;101029.03;;;16.89;100.00
9784;BME280;4931;44.874;-1.092;2022-09-03T04:52:31;101021.56;;;16.75;100.00
9784;BME280;4931;44.874;-1.092;2022-09-03T04:57:16;101020.84;;;16.84;100.00
9784;BME280;4931;44.874;-1.092;2022-09-03T05:02:04;101032.41;;;16.86;100.00
9784;BME280;4931;44.874;-1.092;2022-09-03T05:06:49;101027.75;;;16.95;100.00
9784;BME280;4931;44.874;-1.092;2022-09-03T05:11:35;101025.50;;;16.74;100.00
9784;BME280;4931;44.874;-1.092;2022-09-03T05:16:21;101014.28;;;16.80;100.00
9784;BME280;4931;44.874;-1.092;2022-09-03T05:21:11;101018.31;;;16.73;100.00
9784;BME280;4931;44.874;-1.092;2022-09-03T05:25:57;101019.59;;;16.90;100.00
9784;BME280;4931;44.874;-1.092;2022-09-03T05:30:43;101025.19;;;16.99;100.00
9784;BME280;4931;44.874;-1.092;2022-09-03T05:35:28;101013.09;;;16.95;100.00
9784;BME280;4931;44.874;-1.092;2022-09-03T05:40:16;101020.44;;;16.99;100.00
9784;BME280;4931;44.874;-1.092;2022-09-03T05:45:01;101036.34;;;17.07;100.00
9784;BME280;4931;44.874;-1.092;2022-09-03T05:49:47;101039.44;;;17.15;100.00
9784;BME280;4931;44.874;-1.092;2022-09-03T05:54:32;101048.63;;;17.24;100.00
9784;BME280;4931;44.874;-1.092;2022-09-03T05:59:20;101043.09;;;17.24;100.00
9784;BME280;4931;44.874;-1.092;2022-09-03T06:04:07;101051.19;;;17.12;100.00
9784;BME280;4931;44.874;-1.092;2022-09-03T06:08:54;101049.00;;;17.31;100.00
9784;BME280;4931;44.874;-1.092;2022-09-03T06:13:39;101055.63;;;17.21;100.00
9784;BME280;4931;44.874;-1.092;2022-09-03T06:18:28;101060.84;;;17.23;100.00
9784;BME280;4931;44.874;-1.092;2022-09-03T06:23:13;101051.91;;;17.26;100.00
9784;BME280;4931;44.874;-1.092;2022-09-03T06:27:59;101070.53;;;17.34;100.00
9784;BME280;4931;44.874;-1.092;2022-09-03T06:32:44;101075.44;;;17.37;100.00
9784;BME280;4931;44.874;-1.092;2022-09-03T06:37:38;101077.47;;;17.46;100.00
9784;BME280;4931;44.874;-1.092;2022-09-03T06:42:23;101081.81;;;18.36;100.00
9784;BME280;4931;44.874;-1.092;2022-09-03T06:47:09;101074.81;;;18.91;100.00
9784;BME280;4931;44.874;-1.092;2022-09-03T06:51:55;101081.00;;;18.53;100.00
9784;BME280;4931;44.874;-1.092;2022-09-03T06:56:43;101071.78;;;19.31;100.00
9784;BME280;4931;44.874;-1.092;2022-09-03T07:01:29;101078.06;;;19.11;100.00
9784;BME280;4931;44.874;-1.092;2022-09-03T07:06:17;101075.94;;;19.16;100.00
9784;BME280;4931;44.874;-1.092;2022-09-03T07:11:05;101083.78;;;19.05;100.00
9784;BME280;4931;44.874;-1.092;2022-09-03T07:16:00;101073.78;;;19.69;100.00
9784;BME280;4931;44.874;-1.092;2022-09-03T07:20:46;101083.75;;;19.70;100.00
9784;BME280;4931;44.874;-1.092;2022-09-03T07:25:32;101076.13;;;19.97;100.00
9784;BME280;4931;44.874;-1.092;2022-09-03T07:30:17;101073.81;;;20.71;100.00
9784;BME280;4931;44.874;-1.092;2022-09-03T07:35:06;101061.88;;;21.75;100.00
9784;BME280;4931;44.874;-1.092;2022-09-03T07:39:52;101061.59;;;22.17;100.00
9784;BME280;4931;44.874;-1.092;2022-09-03T07:44:37;101074.09;;;22.89;100.00
9784;BME280;4931;44.874;-1.092;2022-09-03T07:49:22;101084.28;;;23.26;100.00
9784;BME280;4931;44.874;-1.092;2022-09-03T07:54:10;101086.44;;;23.16;100.00
9784;BME280;4931;44.874;-1.092;2022-09-03T07:58:56;101090.47;;;22.75;100.00
9784;BME280;4931;44.874;-1.092;2022-09-03T08:03:43;101089.50;;;22.83;100.00
9784;BME280;4931;44.874;-1.092;2022-09-03T08:08:28;101086.31;;;22.68;100.00
9784;BME280;4931;44.874;-1.092;2022-09-03T08:13:19;101088.25;;;22.68;100.00
9784;BME280;4931;44.874;-1.092;2022-09-03T08:18:08;101093.00;;;22.80;100.00
9784;BME280;4931;44.874;-1.092;2022-09-03T08:23:00;101096.06;;;22.75;100.00
9784;BME280;4931;44.874;-1.092;2022-09-03T08:27:45;101112.19;;;22.53;100.00
9784;BME280;4931;44.874;-1.092;2022-09-03T08:32:33;101105.63;;;22.74;100.00
9784;BME280;4931;44.874;-1.092;2022-09-03T08:37:18;101110.19;;;22.66;100.00
9784;BME280;4931;44.874;-1.092;2022-09-03T08:42:23;101115.66;;;22.62;100.00
9784;BME280;4931;44.874;-1.092;2022-09-03T08:47:11;101118.31;;;22.71;100.00
9784;BME280;4931;44.874;-1.092;2022-09-03T08:52:05;101120.09;;;23.48;100.00
9784;BME280;4931;44.874;-1.092;2022-09-03T08:56:53;101117.00;;;23.37;100.00
9784;BME280;4931;44.874;-1.092;2022-09-03T09:01:47;101117.97;;;23.29;100.00
9784;BME280;4931;44.874;-1.092;2022-09-03T09:06:42;101129.28;;;23.49;100.00
9784;BME280;4931;44.874;-1.092;2022-09-03T09:11:41;101124.63;;;23.85;100.00
9784;BME280;4931;44.874;-1.092;2022-09-03T09:16:36;101126.59;;;24.52;100.00
9784;BME280;4931;44.874;-1.092;2022-09-03T09:21:27;101138.94;;;24.31;100.00
9784;BME280;4931;44.874;-1.092;2022-09-03T09:26:16;101138.72;;;24.04;100.00
9784;BME280;4931;44.874;-1.092;2022-09-03T09:31:06;101140.28;;;24.02;100.00
9784;BME280;4931;44.874;-1.092;2022-09-03T09:35:58;101142.56;;;24.67;100.00
9784;BME280;4931;44.874;-1.092;2022-09-03T09:40:44;101139.78;;;25.07;100.00
9784;BME280;4931;44.874;-1.092;2022-09-03T09:45:29;101135.63;;;25.20;100.00
9784;BME280;4931;44.874;-1.092;2022-09-03T09:50:19;101146.41;;;25.18;100.00
9784;BME280;4931;44.874;-1.092;2022-09-03T09:55:10;101134.47;;;24.82;100.00
9784;BME280;4931;44.874;-1.092;2022-09-03T10:00:05;101134.03;;;24.99;100.00
9784;BME280;4931;44.874;-1.092;2022-09-03T10:04:57;101129.41;;;25.30;100.00
9784;BME280;4931;44.874;-1.092;2022-09-03T10:09:57;101121.72;;;25.47;100.00
9784;BME280;4931;44.874;-1.092;2022-09-03T10:14:46;101122.56;;;25.97;100.00
9784;BME280;4931;44.874;-1.092;2022-09-03T10:19:40;101126.59;;;26.00;100.00
9784;BME280;4931;44.874;-1.092;2022-09-03T10:24:57;101126.28;;;25.55;100.00
9784;BME280;4931;44.874;-1.092;2022-09-03T10:29:43;101125.75;;;25.73;100.00
9784;BME280;4931;44.874;-1.092;2022-09-03T10:34:33;101123.78;;;25.50;100.00
9784;BME280;4931;44.874;-1.092;2022-09-03T10:39:27;101127.31;;;26.16;100.00
9784;BME280;4931;44.874;-1.092;2022-09-03T10:44:52;101132.75;;;25.59;100.00
9784;BME280;4931;44.874;-1.092;2022-09-03T10:49:49;101134.00;;;26.08;100.00
9784;BME280;4931;44.874;-1.092;2022-09-03T10:54:51;101134.19;;;25.73;100.00
9784;BME280;4931;44.874;-1.092;2022-09-03T10:59:54;101134.03;;;26.12;100.00
9784;BME280;4931;44.874;-1.092;2022-09-03T11:04:49;101120.78;;;26.70;100.00
9784;BME280;4931;44.874;-1.092;2022-09-03T11:09:38;101109.03;;;27.28;100.00
9784;BME280;4931;44.874;-1.092;2022-09-03T11:14:33;101111.19;;;27.87;100.00
9784;BME280;4931;44.874;-1.092;2022-09-03T11:19:29;101101.91;;;27.83;98.24
9784;BME280;4931;44.874;-1.092;2022-09-03T11:24:20;101096.88;;;28.07;96.55
9784;BME280;4931;44.874;-1.092;2022-09-03T11:29:11;101093.13;;;28.58;95.03
9784;BME280;4931;44.874;-1.092;2022-09-03T11:34:06;101096.28;;;28.46;94.63
9784;BME280;4931;44.874;-1.092;2022-09-03T11:38:54;101101.44;;;27.74;94.38
9784;BME280;4931;44.874;-1.092;2022-09-03T11:43:42;101099.03;;;27.76;95.51
9784;BME280;4931;44.874;-1.092;2022-09-03T11:48:35;101087.34;;;28.33;93.11
9784;BME280;4931;44.874;-1.092;2022-09-03T11:53:24;101097.03;;;28.36;92.71
9784;BME280;4931;44.874;-1.092;2022-09-03T11:58:20;101089.78;;;28.35;89.67
9784;BME280;4931;44.874;-1.092;2022-09-03T12:03:12;101096.44;;;28.78;86.85
9784;BME280;4931;44.874;-1.092;2022-09-03T12:08:28;101092.03;;;28.85;85.40
9784;BME280;4931;44.874;-1.092;2022-09-03T12:13:32;101096.09;;;28.94;85.79
9784;BME280;4931;44.874;-1.092;2022-09-03T12:18:23;101096.53;;;29.11;83.81
9784;BME280;4931;44.874;-1.092;2022-09-03T12:23:10;101100.09;;;28.82;84.84
9784;BME280;4931;44.874;-1.092;2022-09-03T12:27:56;101101.19;;;28.63;85.24
9784;BME280;4931;44.874;-1.092;2022-09-03T12:32:48;101098.56;;;28.22;86.67
9784;BME280;4931;44.874;-1.092;2022-09-03T12:37:36;101095.84;;;27.81;89.80
9784;BME280;4931;44.874;-1.092;2022-09-03T12:42:44;101101.38;;;27.66;89.39
9784;BME280;4931;44.874;-1.092;2022-09-03T12:47:37;101103.22;;;27.96;86.71
9784;BME280;4931;44.874;-1.092;2022-09-03T12:52:29;101097.00;;;28.28;84.17
9784;BME280;4931;44.874;-1.092;2022-09-03T12:57:19;101089.09;;;28.59;84.23
9784;BME280;4931;44.874;-1.092;2022-09-03T13:02:13;101098.69;;;28.44;84.12
9784;BME280;4931;44.874;-1.092;2022-09-03T13:07:02;101100.19;;;28.20;81.01
9784;BME280;4931;44.874;-1.092;2022-09-03T13:11:51;101090.22;;;27.81;83.70
9784;BME280;4931;44.874;-1.092;2022-09-03T13:16:59;101095.00;;;27.77;nan
9784;BME280;4931;44.874;-1.092;2022-09-03T13:21:54;101085.56;;;28.03;81.57
9784;BME280;4931;44.874;-1.092;2022-09-03T13:26:55;101086.06;;;28.16;77.91
9784;BME280;4931;44.874;-1.092;2022-09-03T13:31:46;101090.28;;;27.92;79.15
9784;BME280;4931;44.874;-1.092;2022-09-03T13:36:41;101087.97;;;28.05;78.29
9784;BME280;4931;44.874;-1.092;2022-09-03T13:41:34;101091.72;;;28.23;75.98
9784;BME280;4931;44.874;-1.092;2022-09-03T13:46:29;101091.00;;;27.81;75.68
9784;BME280;4931;44.874;-1.092;2022-09-03T13:51:19;101084.63;;;27.88;76.68
9784;BME280;4931;44.874;-1.092;2022-09-03T13:56:13;101072.19;;;27.96;75.21
9784;BME280;4931;44.874;-1.092;2022-09-03T14:01:11;101072.03;;;27.75;75.16
9784;BME280;4931;44.874;-1.092;2022-09-03T14:06:09;101067.53;;;27.63;73.10
9784;BME280;4931;44.874;-1.092;2022-09-03T14:11:04;101077.28;;;27.73;75.50
9784;BME280;4931;44.874;-1.092;2022-09-03T14:15:58;101064.69;;;27.18;76.19
9784;BME280;4931;44.874;-1.092;2022-09-03T14:20:52;101063.88;;;27.17;76.66
9784;BME280;4931;44.874;-1.092;2022-09-03T14:25:51;101063.31;;;27.39;77.38
9784;BME280;4931;44.874;-1.092;2022-09-03T14:30:40;101053.03;;;27.20;78.54
9784;BME280;4931;44.874;-1.092;2022-09-03T14:35:38;101057.13;;;26.84;75.79
9784;BME280;4931;44.874;-1.092;2022-09-03T14:40:37;101056.06;;;26.66;79.58
9784;BME280;4931;44.874;-1.092;2022-09-03T14:45:44;101066.31;;;26.51;77.02
9784;BME280;4931;44.874;-1.092;2022-09-03T14:50:43;101060.50;;;25.83;79.24
9784;BME280;4931;44.874;-1.092;2022-09-03T14:55:47;101058.03;;;25.78;82.68
9784;BME280;4931;44.874;-1.092;2022-09-03T15:00:49;101053.06;;;25.67;84.45
9784;BME280;4931;44.874;-1.092;2022-09-03T15:05:45;101053.84;;;26.18;79.79
9784;BME280;4931;44.874;-1.092;2022-09-03T15:10:36;101051.13;;;25.98;79.70
9784;BME280;4931;44.874;-1.092;2022-09-03T15:15:29;101048.81;;;25.54;81.07
9784;BME280;4931;44.874;-1.092;2022-09-03T15:20:25;101051.22;;;25.52;82.05
9784;BME280;4931;44.874;-1.092;2022-09-03T15:25:18;101055.34;;;25.85;83.33
9784;BME280;4931;44.874;-1.092;2022-09-03T15:30:08;101045.06;;;25.69;82.38
9784;BME280;4931;44.874;-1.092;2022-09-03T15:35:01;101046.50;;;26.10;84.94
9784;BME280;4931;44.874;-1.092;2022-09-03T15:39:58;101049.53;;;26.01;83.13
9784;BME280;4931;44.874;-1.092;2022-09-03T15:44:49;101048.94;;;25.88;82.70
9784;BME280;4931;44.874;-1.092;2022-09-03T15:49:45;101053.94;;;25.72;85.98
9784;BME280;4931;44.874;-1.092;2022-09-03T15:54:37;101050.75;;;25.73;85.25
9784;BME280;4931;44.874;-1.092;2022-09-03T15:59:37;101051.94;;;25.49;86.15
9784;BME280;4931;44.874;-1.092;2022-09-03T16:04:47;101048.81;;;25.54;85.13
9784;BME280;4931;44.874;-1.092;2022-09-03T16:09:47;101044.19;;;25.65;83.31
9784;BME280;4931;44.874;-1.092;2022-09-03T16:15:08;101048.09;;;25.57;83.00
9784;BME280;4931;44.874;-1.092;2022-09-03T16:20:02;101048.78;;;25.08;83.62
9784;BME280;4931;44.874;-1.092;2022-09-03T16:24:53;101046.44;;;25.33;84.63
9784;BME280;4931;44.874;-1.092;2022-09-03T16:29:40;101045.06;;;25.23;85.51
9784;BME280;4931;44.874;-1.092;2022-09-03T16:34:36;101049.13;;;25.26;86.82
9784;BME280;4931;44.874;-1.092;2022-09-03T16:39:35;101051.91;;;25.02;86.68
9784;BME280;4931;44.874;-1.092;2022-09-03T16:44:33;101046.78;;;24.85;84.93
9784;BME280;4931;44.874;-1.092;2022-09-03T16:49:37;101044.78;;;24.85;86.33
9784;BME280;4931;44.874;-1.092;2022-09-03T16:54:31;101038.06;;;24.51;90.19
9784;BME280;4931;44.874;-1.092;2022-09-03T16:59:45;101035.53;;;24.46;90.92
9784;BME280;4931;44.874;-1.092;2022-09-03T17:04:55;101036.44;;;24.50;91.70
9784;BME280;4931;44.874;-1.092;2022-09-03T17:09:55;101037.28;;;24.34;96.53
9784;BME280;4931;44.874;-1.092;2022-09-03T17:15:12;101037.59;;;24.29;94.93
9784;BME280;4931;44.874;-1.092;2022-09-03T17:20:11;101038.81;;;24.12;96.98
9784;BME280;4931;44.874;-1.092;2022-09-03T17:25:00;101044.50;;;24.16;97.27
9784;BME280;4931;44.874;-1.092;2022-09-03T17:30:05;101046.25;;;24.04;98.07
9784;BME280;4931;44.874;-1.092;2022-09-03T17:35:03;101044.28;;;24.05;99.62
9784;BME280;4931;44.874;-1.092;2022-09-03T17:40:24;101049.78;;;24.01;100.00
9784;BME280;4931;44.874;-1.092;2022-09-03T17:45:14;101054.41;;;23.78;100.00
9784;BME280;4931;44.874;-1.092;2022-09-03T17:50:11;101050.72;;;23.74;100.00
9784;BME280;4931;44.874;-1.092;2022-09-03T17:55:01;101045.22;;;23.61;100.00
9784;BME280;4931;44.874;-1.092;2022-09-03T18:00:00;101047.56;;;23.59;100.00
9784;BME280;4931;44.874;-1.092;2022-09-03T18:04:50;101038.97;;;23.52;100.00
9784;BME280;4931;44.874;-1.092;2022-09-03T18:09:41;101039.97;;;23.44;100.00
9784;BME280;4931;44.874;-1.092;2022-09-03T18:14:33;101039.19;;;23.27;100.00
9784;BME280;4931;44.874;-1.092;2022-09-03T18:19:30;101037.81;;;23.21;100.00
9784;BME280;4931;44.874;-1.092;2022-09-03T18:24:34;101036.59;;;23.06;100.00
9784;BME280;4931;44.874;-1.092;2022-09-03T18:29:44;101046.41;;;22.84;100.00
9784;BME280;4931;44.874;-1.092;2022-09-03T18:34:46;101047.06;;;22.65;100.00
9784;BME280;4931;44.874;-1.092;2022-09-03T18:39:44;101064.44;;;22.58;100.00
9784;BME280;4931;44.874;-1.092;2022-09-03T18:44:51;101063.53;;;22.54;100.00
9784;BME280;4931;44.874;-1.092;2022-09-03T18:50:12;101062.63;;;22.25;100.00
9784;BME280;4931;44.874;-1.092;2022-09-03T18:55:18;101068.81;;;22.18;100.00
9784;BME280;4931;44.874;-1.092;2022-09-03T19:00:19;101075.69;;;22.09;100.00
9784;BME280;4931;44.874;-1.092;2022-09-03T19:05:26;101073.84;;;22.00;100.00
9784;BME280;4931;44.874;-1.092;2022-09-03T19:10:35;101078.75;;;21.79;100.00
9784;BME280;4931;44.874;-1.092;2022-09-03T19:15:38;101084.34;;;21.79;100.00
9784;BME280;4931;44.874;-1.092;2022-09-03T19:20:47;101083.16;;;21.67;100.00
9784;BME280;4931;44.874;-1.092;2022-09-03T19:25:51;101087.47;;;21.31;100.00
9784;BME280;4931;44.874;-1.092;2022-09-03T19:30:58;101098.03;;;21.13;100.00
9784;BME280;4931;44.874;-1.092;2022-09-03T19:36:11;101105.69;;;21.16;100.00
9784;BME280;4931;44.874;-1.092;2022-09-03T19:41:19;101113.16;;;20.91;100.00
9784;BME280;4931;44.874;-1.092;2022-09-03T19:46:29;101119.53;;;20.92;100.00
9784;BME280;4931;44.874;-1.092;2022-09-03T19:51:36;101105.69;;;20.83;100.00
9784;BME280;4931;44.874;-1.092;2022-09-03T19:56:37;101105.41;;;20.76;100.00
9784;BME280;4931;44.874;-1.092;2022-09-03T20:01:37;101097.94;;;20.67;100.00
9784;BME280;4931;44.874;-1.092;2022-09-03T20:06:37;101102.66;;;20.46;100.00
9784;BME280;4931;44.874;-1.092;2022-09-03T20:11:36;101095.75;;;20.52;100.00
9784;BME280;4931;44.874;-1.092;2022-09-03T20:16:27;101098.38;;;20.48;100.00
9784;BME280;4931;44.874;-1.092;2022-09-03T20:21:20;101101.03;;;20.45;100.00
9784;BME280;4931;44.874;-1.092;2022-09-03T20:26:17;101119.38;;;20.46;100.00
9784;BME280;4931;44.874;-1.092;2022-09-03T20:31:10;101121.28;;;20.33;100.00
9784;BME280;4931;44.874;-1.092;2022-09-03T20:36:04;101120.84;;;20.22;100.00
9784;BME280;4931;44.874;-1.092;2022-09-03T20:40:57;101125.47;;;20.18;100.00
9784;BME280;4931;44.874;-1.092;2022-09-03T20:46:08;101130.56;;;19.86;100.00
9784;BME280;4931;44.874;-1.092;2022-09-03T20:51:01;101131.25;;;19.65;100.00
9784;BME280;4931;44.874;-1.092;2022-09-03T20:55:55;101137.00;;;19.51;100.00
9784;BME280;4931;44.874;-1.092;2022-09-03T21:00:47;101136.31;;;19.63;100.00
9784;BME280;4931;44.874;-1.092;2022-09-03T21:05:44;101132.78;;;19.45;100.00
9784;BME280;4931;44.874;-1.092;2022-09-03T21:10:35;101145.22;;;19.48;100.00
9784;BME280;4931;44.874;-1.092;2022-09-03T21:15:29;101148.53;;;19.41;100.00
9784;BME280;4931;44.874;-1.092;2022-09-03T21:20:23;101150.63;;;19.35;100.00
9784;BME280;4931;44.874;-1.092;2022-09-03T21:25:13;101143.44;;;19.34;100.00
9784;BME280;4931;44.874;-1.092;2022-09-03T21:30:02;101139.84;;;19.25;100.00
9784;BME280;4931;44.874;-1.092;2022-09-03T21:34:55;101142.81;;;19.20;100.00
9784;BME280;4931;44.874;-1.092;2022-09-03T21:39:49;101138.59;;;19.14;100.00
9784;BME280;4931;44.874;-1.092;2022-09-03T21:44:51;101134.66;;;19.15;100.00
9784;BME280;4931;44.874;-1.092;2022-09-03T21:49:46;101132.69;;;19.06;100.00
9784;BME280;4931;44.874;-1.092;2022-09-03T21:54:34;101137.78;;;19.04;100.00
9784;BME280;4931;44.874;-1.092;2022-09-03T21:59:28;101141.69;;;18.95;100.00
9784;BME280;4931;44.874;-1.092;2022-09-03T22:04:21;101144.47;;;18.86;100.00
9784;BME280;4931;44.874;-1.092;2022-09-03T22:09:12;101135.78;;;18.79;100.00
9784;BME280;4931;44.874;-1.092;2022-09-03T22:14:05;101139.53;;;18.83;100.00
9784;BME280;4931;44.874;-1.092;2022-09-03T22:18:53;101141.84;;;18.81;100.00
9784;BME280;4931;44.874;-1.092;2022-09-03T22:23:51;101140.03;;;18.76;100.00
9784;BME280;4931;44.874;-1.092;2022-09-03T22:28:56;101138.88;;;18.77;100.00
9784;BME280;4931;44.874;-1.092;2022-09-03T22:33:52;101148.50;;;18.62;100.00
9784;BME280;4931;44.874;-1.092;2022-09-03T22:39:00;101139.19;;;18.58;100.00
9784;BME280;4931;44.874;-1.092;2022-09-03T22:43:49;101147.03;;;18.56;100.00
9784;BME280;4931;44.874;-1.092;2022-09-03T22:48:59;101147.34;;;18.46;100.00
9784;BME280;4931;44.874;-1.092;2022-09-03T22:54:04;101148.94;;;18.29;100.00
9784;BME280;4931;44.874;-1.092;2022-09-03T22:58:57;101156.78;;;18.27;100.00
9784;BME280;4931;44.874;-1.092;2022-09-03T23:03:52;101149.94;;;18.24;100.00
9784;BME280;4931;44.874;-1.092;2022-09-03T23:08:43;101153.19;;;18.18;100.00
9784;BME280;4931;44.874;-1.092;2022-09-03T23:13:35;101152.97;;;18.05;100.00
9784;BME280;4931;44.874;-1.092;2022-09-03T23:18:24;101148.97;;;17.89;100.00
9784;BME280;4931;44.874;-1.092;2022-09-03T23:23:18;101146.47;;;17.79;100.00
9784;BME280;4931;44.874;-1.092;2022-09-03T23:28:08;101150.38;;;17.78;100.00
9784;BME280;4931;44.874;-1.092;2022-09-03T23:32:58;101152.00;;;17.79;100.00
9784;BME280;4931;44.874;-1.092;2022-09-03T23:37:55;101147.38;;;17.65;100.00
9784;BME280;4931;44.874;-1.092;2022-09-03T23:42:53;101153.47;;;17.45;100.00
9784;BME280;4931;44.874;-1.092;2022-09-03T23:47:51;101152.72;;;17.30;100.00
9784;BME280;4931;44.874;-1.092;2022-09-03T23:52:55;101147.81;;;17.27;100.00
9784;BME280;4931;44.874;-1.092;2022-09-03T23:57:51;101139.63;;;17.22;100.00
